Terminal Aerodrome Forecast
Issued by NWS Blacksburg, VA

Current Version | Previous Version | Graphics & Text | Print | Product List | Glossary On
Versions: 1 2 3 4 5 6 7 8 9 10 11 12 13 14 15 16 17 18 19 20 21 22
000
FTUS41 KRNK 011144
TAFBLF
TAF
KBLF 011144Z 0112/0212 VRB06KT 5SM -SHRA BR BKN015 BKN050 OVC080
      TEMPO 0112/0116 1SM +SHRA BR BKN015 OVC045
     FM011700 23010G18KT P6SM VCSH BKN025 BKN045 OVC250 PROB30
      0122/0202 1SM +TSRA BR BKN015CB
     FM020200 25007KT P6SM VCSH SCT015 BKN250
     FM020600 24006KT P6SM OVC015=

USA.gov is the U.S. government's official web portal to all federal, state and local government web resources and services.